Time;durP1;ratioP1;P1;durP2;ratioP2;P2;SDS_P1;SDS_P2;PMS_P1;PMS_P2;Temp;Humidity;BMP_temperature;BMP_pressure;BME280_temperature;BME280_humidity;BME280_pressure;Samples;Min_cycle;Max_cycle;Signal;HPM_P1;HPM_P2
2023/05/18 00:02:14;;;;;;;6.60;3.07;;;10.50;99.90;;;;;;4983497;28;20200;-76
2023/05/18 00:04:42;;;;;;;6.78;2.90;;;10.50;99.90;;;;;;4986211;28;20228;-76
2023/05/18 00:07:10;;;;;;;6.28;2.90;;;10.30;99.90;;;;;;4972368;28;20204;-75
2023/05/18 00:09:37;;;;;;;7.57;3.35;;;9.90;99.90;;;;;;4982015;28;20225;-75
2023/05/18 00:12:05;;;;;;;7.40;2.60;;;10.00;99.90;;;;;;4982650;28;20205;-75
2023/05/18 00:14:33;;;;;;;4.72;3.15;;;9.80;99.90;;;;;;4973466;28;20216;-75
2023/05/18 00:17:02;;;;;;;7.40;3.00;;;9.70;99.90;;;;;;4972410;28;20201;-75
2023/05/18 00:19:30;;;;;;;4.05;2.45;;;9.80;99.90;;;;;;4963645;28;20205;-75
2023/05/18 00:21:57;;;;;;;8.25;3.47;;;9.80;99.90;;;;;;4972679;28;20205;-75
2023/05/18 00:24:25;;;;;;;6.10;2.83;;;9.70;99.90;;;;;;4967913;28;20232;-75
2023/05/18 00:26:52;;;;;;;7.70;4.20;;;9.70;99.90;;;;;;4982760;28;20201;-75
2023/05/18 00:29:20;;;;;;;7.13;3.40;;;9.80;99.90;;;;;;4963252;28;20213;-75
2023/05/18 00:31:47;;;;;;;8.93;3.05;;;9.90;99.90;;;;;;4973379;28;20189;-75
2023/05/18 00:34:16;;;;;;;7.53;3.60;;;9.90;99.90;;;;;;4958070;28;20230;-75
2023/05/18 00:36:44;;;;;;;7.75;2.90;;;9.70;99.90;;;;;;4971341;28;20205;-75
2023/05/18 00:39:11;;;;;;;4.57;3.08;;;9.60;99.90;;;;;;4985050;28;20208;-75
2023/05/18 00:41:40;;;;;;;9.50;3.00;;;9.60;99.90;;;;;;4971519;28;20185;-75
2023/05/18 00:44:07;;;;;;;11.73;3.67;;;9.50;99.90;;;;;;4986912;28;20252;-75
2023/05/18 00:46:36;;;;;;;6.13;3.10;;;9.40;99.90;;;;;;4970166;28;20205;-75
2023/05/18 00:49:04;;;;;;;6.77;3.03;;;9.40;99.90;;;;;;4962956;28;20582;-75
2023/05/18 00:51:34;;;;;;;5.07;3.20;;;9.30;99.90;;;;;;4966157;28;20692;-75
2023/05/18 00:54:02;;;;;;;9.93;3.00;;;9.40;99.90;;;;;;4970711;28;20216;-75
2023/05/18 00:56:32;;;;;;;7.53;3.27;;;9.40;99.90;;;;;;4967193;28;20215;-75
2023/05/18 00:59:03;;;;;;;7.37;3.30;;;9.60;99.90;;;;;;4977505;28;20194;-75
2023/05/18 01:01:33;;;;;;;7.47;2.88;;;9.50;99.90;;;;;;4983554;28;20204;-75
2023/05/18 01:04:02;;;;;;;5.20;3.30;;;9.40;99.90;;;;;;4967430;28;20220;-75
2023/05/18 01:06:31;;;;;;;4.07;3.07;;;9.40;99.90;;;;;;4969769;28;20205;-75
2023/05/18 01:09:02;;;;;;;8.23;2.93;;;9.40;99.90;;;;;;4971584;28;20209;-75
2023/05/18 01:11:38;;;;;;;5.53;2.87;;;9.30;99.90;;;;;;4982032;28;20212;-75
2023/05/18 01:14:14;;;;;;;5.33;2.83;;;9.20;99.90;;;;;;4970336;28;20223;-75
2023/05/18 01:16:48;;;;;;;4.72;3.05;;;9.20;99.90;;;;;;4969475;28;20208;-75
2023/05/18 01:19:48;;;;;;;7.07;3.33;;;9.20;99.90;;;;;;4967991;28;20208;-76
2023/05/18 01:22:28;;;;;;;7.90;3.70;;;9.30;99.90;;;;;;4986243;28;20197;-76
2023/05/18 01:25:03;;;;;;;13.48;3.00;;;9.00;99.90;;;;;;4985940;28;21141;-76
2023/05/18 01:27:36;;;;;;;10.10;3.53;;;9.30;99.90;;;;;;4965134;28;20208;-76
2023/05/18 01:30:04;;;;;;;7.47;3.53;;;9.30;99.90;;;;;;4970501;28;20228;-76
2023/05/18 01:32:40;;;;;;;5.87;3.00;;;9.30;99.90;;;;;;4970797;28;20679;-76
2023/05/18 01:35:08;;;;;;;6.07;2.93;;;9.40;99.90;;;;;;4985047;28;20216;-76
2023/05/18 01:37:35;;;;;;;7.47;3.60;;;9.50;99.90;;;;;;4971238;28;20205;-76
2023/05/18 01:40:04;;;;;;;5.20;3.00;;;9.50;99.90;;;;;;4969413;28;20549;-76
2023/05/18 01:42:37;;;;;;;6.43;2.90;;;9.40;99.90;;;;;;4965230;28;20201;-76
2023/05/18 01:45:15;;;;;;;6.47;3.27;;;9.40;99.90;;;;;;4981007;28;20207;-76
2023/05/18 01:47:45;;;;;;;6.40;2.90;;;9.50;99.90;;;;;;4983188;28;20207;-76
2023/05/18 01:50:15;;;;;;;5.73;3.33;;;9.40;99.90;;;;;;4983264;28;20525;-76
2023/05/18 01:52:48;;;;;;;8.40;3.50;;;9.40;99.90;;;;;;4970342;28;20205;-76
2023/05/18 01:55:17;;;;;;;6.40;3.30;;;9.40;99.90;;;;;;4965173;28;20197;-76
2023/05/18 01:57:49;;;;;;;6.00;3.50;;;9.30;99.90;;;;;;4982372;28;20205;-76
2023/05/18 02:00:19;;;;;;;8.07;3.10;;;9.20;99.90;;;;;;4963710;28;20193;-76
2023/05/18 02:02:48;;;;;;;9.93;3.57;;;9.30;99.90;;;;;;4985094;28;20215;-76
2023/05/18 02:05:18;;;;;;;5.47;3.17;;;9.30;99.90;;;;;;4986789;28;20189;-76
2023/05/18 02:07:46;;;;;;;9.13;3.67;;;9.10;99.90;;;;;;4981193;28;20193;-76
2023/05/18 02:10:14;;;;;;;8.90;3.60;;;9.10;99.90;;;;;;4970671;28;20220;-76
2023/05/18 02:12:42;;;;;;;5.03;3.23;;;9.00;99.90;;;;;;4977948;28;20582;-76
2023/05/18 02:15:12;;;;;;;10.33;3.37;;;9.10;99.90;;;;;;4968158;28;20208;-76
2023/05/18 02:17:40;;;;;;;4.60;3.17;;;9.10;99.90;;;;;;4976393;28;20202;-76
2023/05/18 02:20:08;;;;;;;6.77;3.23;;;9.10;99.90;;;;;;4965973;28;20208;-76
2023/05/18 02:22:36;;;;;;;6.83;3.67;;;9.10;99.90;;;;;;4968479;28;20201;-75
2023/05/18 02:25:06;;;;;;;8.53;3.73;;;8.90;99.90;;;;;;4985159;28;20201;-75
2023/05/18 02:27:34;;;;;;;7.97;4.20;;;8.80;99.90;;;;;;4970636;28;20216;-75
2023/05/18 02:30:03;;;;;;;4.00;3.10;;;8.90;99.90;;;;;;4970904;28;20209;-75
2023/05/18 02:32:50;;;;;;;5.73;3.20;;;8.80;99.90;;;;;;4983063;28;20204;-75
2023/05/18 02:35:17;;;;;;;6.50;3.33;;;8.90;99.90;;;;;;4974204;28;20196;-75
2023/05/18 02:37:46;;;;;;;8.00;3.40;;;8.90;99.90;;;;;;4973239;28;20193;-76
2023/05/18 02:40:14;;;;;;;7.63;3.40;;;8.90;99.90;;;;;;4967365;28;20197;-76
2023/05/18 02:42:42;;;;;;;5.17;3.10;;;9.00;99.90;;;;;;4983351;28;20197;-76
2023/05/18 02:45:10;;;;;;;6.43;3.70;;;9.00;99.90;;;;;;4967763;28;20675;-76
2023/05/18 02:47:38;;;;;;;6.13;3.70;;;8.90;99.90;;;;;;4983858;28;20201;-76
2023/05/18 02:50:08;;;;;;;7.23;3.93;;;9.00;99.90;;;;;;4989149;28;20213;-76
2023/05/18 02:52:36;;;;;;;5.97;3.57;;;9.10;99.90;;;;;;4989892;28;20197;-76
2023/05/18 02:55:05;;;;;;;6.00;3.60;;;9.00;99.90;;;;;;4972441;28;20205;-76
2023/05/18 02:57:55;;;;;;;7.40;3.87;;;8.60;99.90;;;;;;4974166;28;20226;-76
2023/05/18 03:00:28;;;;;;;6.50;3.63;;;8.60;99.90;;;;;;4973624;28;20197;-75
2023/05/18 03:02:56;;;;;;;8.23;3.63;;;8.70;99.90;;;;;;4984211;28;20220;-76
2023/05/18 03:05:25;;;;;;;5.17;3.70;;;8.60;99.90;;;;;;4982069;28;20213;-77
2023/05/18 03:07:53;;;;;;;6.83;4.30;;;8.60;99.90;;;;;;4970433;28;20204;-76
2023/05/18 03:10:22;;;;;;;7.07;3.70;;;8.30;99.90;;;;;;4971826;28;20710;-76
2023/05/18 03:12:50;;;;;;;6.50;3.80;;;8.20;99.90;;;;;;4968174;28;20664;-76
2023/05/18 03:15:18;;;;;;;4.43;3.50;;;8.30;99.90;;;;;;4967794;28;20220;-76
2023/05/18 03:17:45;;;;;;;5.07;3.60;;;8.30;99.90;;;;;;4968199;28;20200;-76
2023/05/18 03:20:14;;;;;;;8.13;3.80;;;8.30;99.90;;;;;;4986495;28;20208;-76
2023/05/18 03:22:43;;;;;;;4.33;3.30;;;8.40;99.90;;;;;;4989371;28;20201;-76
2023/05/18 03:25:10;;;;;;;7.77;3.80;;;8.50;99.90;;;;;;4973157;28;20209;-76
2023/05/18 03:27:39;;;;;;;4.27;3.53;;;8.20;99.90;;;;;;4979787;28;20216;-76
2023/05/18 03:30:08;;;;;;;7.43;3.57;;;7.80;99.90;;;;;;4969834;28;20220;-76
2023/05/18 03:32:36;;;;;;;8.30;3.80;;;7.80;99.90;;;;;;4973294;28;20212;-76
2023/05/18 03:35:04;;;;;;;7.13;3.70;;;7.80;99.90;;;;;;4973304;28;20209;-76
2023/05/18 03:37:32;;;;;;;7.70;4.30;;;7.90;99.90;;;;;;4973540;28;20201;-76
2023/05/18 03:40:09;;;;;;;6.57;3.87;;;7.90;99.90;;;;;;4968548;28;20205;-76
2023/05/18 03:42:38;;;;;;;7.43;3.47;;;8.00;99.90;;;;;;4968652;28;20197;-76
2023/05/18 03:45:07;;;;;;;5.37;3.80;;;8.10;99.90;;;;;;4970219;28;20201;-76
2023/05/18 03:47:34;;;;;;;7.33;4.60;;;8.10;99.90;;;;;;4971079;28;20197;-76
2023/05/18 03:50:02;;;;;;;6.33;3.63;;;7.90;99.90;;;;;;4987906;28;20224;-76
2023/05/18 03:52:29;;;;;;;8.90;4.30;;;7.70;99.90;;;;;;4981142;28;20571;-76
2023/05/18 03:54:57;;;;;;;6.17;4.00;;;7.80;99.90;;;;;;4964870;28;20217;-76
2023/05/18 03:57:25;;;;;;;7.10;3.93;;;7.80;99.90;;;;;;4970104;28;20201;-76
2023/05/18 03:59:53;;;;;;;7.80;4.03;;;7.80;99.90;;;;;;4988249;28;20189;-76
2023/05/18 04:02:20;;;;;;;9.37;3.97;;;7.80;99.90;;;;;;4987532;28;20197;-76
2023/05/18 04:04:48;;;;;;;7.60;3.47;;;7.70;99.90;;;;;;4985119;28;20224;-77
2023/05/18 04:07:16;;;;;;;6.27;4.00;;;7.80;99.90;;;;;;4970089;28;20679;-77
2023/05/18 04:09:44;;;;;;;6.47;3.60;;;7.80;99.90;;;;;;4979108;28;20202;-76
2023/05/18 04:12:11;;;;;;;5.87;4.27;;;7.80;99.90;;;;;;4965874;28;20201;-77
2023/05/18 04:14:41;;;;;;;8.77;4.10;;;8.00;99.90;;;;;;4966094;28;20233;-77
2023/05/18 04:17:08;;;;;;;5.40;3.67;;;8.00;99.90;;;;;;4969512;28;20197;-77
2023/05/18 04:19:37;;;;;;;4.87;3.63;;;8.20;99.90;;;;;;4971513;28;20212;-77
2023/05/18 04:22:07;;;;;;;5.50;3.57;;;8.50;99.90;;;;;;4987549;28;20196;-76
2023/05/18 04:24:36;;;;;;;6.37;3.80;;;8.50;99.90;;;;;;4970030;28;20297;-77
2023/05/18 04:27:04;;;;;;;9.00;4.00;;;8.50;99.90;;;;;;4969584;28;20208;-76
2023/05/18 04:29:31;;;;;;;5.87;3.53;;;8.30;99.90;;;;;;4972203;28;20201;-77
2023/05/18 04:32:01;;;;;;;7.77;4.10;;;8.60;99.90;;;;;;4986461;28;20220;-77
2023/05/18 04:34:30;;;;;;;6.83;4.43;;;8.60;99.90;;;;;;4971653;28;20243;-77
2023/05/18 04:36:58;;;;;;;7.33;4.57;;;8.60;99.90;;;;;;4987570;28;20208;-77
2023/05/18 04:39:26;;;;;;;8.53;4.10;;;8.60;99.90;;;;;;4972228;28;20205;-77
2023/05/18 04:41:57;;;;;;;6.87;3.93;;;8.60;99.90;;;;;;4986563;28;20204;-77
2023/05/18 04:44:27;;;;;;;8.90;4.07;;;8.70;99.90;;;;;;4986467;28;20321;-77
2023/05/18 04:46:58;;;;;;;11.67;4.23;;;8.90;99.90;;;;;;4968649;28;20196;-77
2023/05/18 04:49:27;;;;;;;7.37;3.90;;;9.00;99.90;;;;;;4971140;28;20209;-77
2023/05/18 04:51:56;;;;;;;5.67;4.30;;;9.00;99.90;;;;;;4983632;28;20217;-76
2023/05/18 04:54:24;;;;;;;5.33;3.93;;;8.90;99.90;;;;;;4962030;28;20241;-77
2023/05/18 04:56:51;;;;;;;5.30;3.70;;;9.00;99.90;;;;;;4968479;28;20291;-78
2023/05/18 04:59:19;;;;;;;8.00;4.20;;;8.90;99.90;;;;;;4985785;28;20196;-77
2023/05/18 05:01:47;;;;;;;7.23;3.67;;;9.00;99.90;;;;;;4973837;28;20197;-77
2023/05/18 05:04:14;;;;;;;7.07;4.17;;;9.10;99.90;;;;;;4972092;28;20235;-77
2023/05/18 05:06:43;;;;;;;8.80;4.47;;;9.30;99.90;;;;;;4977086;28;20198;-77
2023/05/18 05:09:12;;;;;;;7.60;3.83;;;9.10;99.90;;;;;;4953357;28;20221;-77
2023/05/18 05:11:40;;;;;;;8.10;4.40;;;9.10;99.90;;;;;;4952757;28;20222;-77
2023/05/18 05:14:15;;;;;;;7.47;5.33;;;9.10;99.90;;;;;;4957969;28;20230;-77
2023/05/18 05:16:43;;;;;;;7.40;4.27;;;9.20;99.90;;;;;;4982163;28;20196;-76
2023/05/18 05:19:10;;;;;;;8.40;5.17;;;9.20;99.90;;;;;;4968410;28;20197;-77
2023/05/18 05:21:39;;;;;;;9.80;4.77;;;9.10;99.90;;;;;;4984240;28;20200;-77
2023/05/18 05:24:08;;;;;;;7.63;4.30;;;9.10;99.90;;;;;;4983297;28;20217;-77
2023/05/18 05:26:41;;;;;;;10.10;4.93;;;8.60;99.90;;;;;;4970869;28;20216;-76
2023/05/18 05:29:09;;;;;;;6.20;4.47;;;8.90;99.90;;;;;;4965409;28;20201;-76
2023/05/18 05:31:48;;;;;;;7.10;5.17;;;9.10;99.90;;;;;;4964699;28;20220;-77
2023/05/18 05:34:32;;;;;;;8.07;4.70;;;9.30;99.90;;;;;;4965526;28;20231;-77
2023/05/18 05:37:00;;;;;;;6.87;4.40;;;9.30;99.90;;;;;;4986159;28;20547;-77
2023/05/18 05:39:34;;;;;;;10.77;5.03;;;9.10;99.90;;;;;;4959970;28;20205;-77
2023/05/18 05:42:01;;;;;;;8.10;5.17;;;9.30;99.90;;;;;;4987042;28;20564;-77
2023/05/18 05:44:29;;;;;;;8.23;4.40;;;9.40;99.90;;;;;;4958588;28;20245;-77
2023/05/18 05:46:56;;;;;;;7.97;5.20;;;9.50;99.90;;;;;;4971590;28;20228;-77
2023/05/18 05:49:39;;;;;;;7.63;4.77;;;9.60;99.90;;;;;;4970053;28;20201;-76
2023/05/18 05:52:07;;;;;;;6.73;5.03;;;9.50;99.90;;;;;;4987662;28;20213;-77
2023/05/18 05:54:37;;;;;;;5.53;4.60;;;9.60;99.90;;;;;;4984539;28;20602;-77
2023/05/18 05:57:06;;;;;;;10.10;5.33;;;9.80;99.90;;;;;;4959745;28;20205;-77
2023/05/18 05:59:34;;;;;;;9.30;4.67;;;9.80;99.90;;;;;;4980713;28;20205;-77
2023/05/18 06:02:01;;;;;;;9.60;5.13;;;9.50;99.90;;;;;;4985992;28;20201;-77
2023/05/18 06:04:29;;;;;;;6.53;4.63;;;9.80;99.90;;;;;;4967026;28;20236;-77
2023/05/18 06:07:03;;;;;;;8.53;5.43;;;9.70;99.90;;;;;;4968690;28;20208;-77
2023/05/18 06:09:31;;;;;;;8.27;4.90;;;9.70;99.90;;;;;;4985196;28;20205;-76
2023/05/18 06:12:00;;;;;;;8.73;4.67;;;9.70;99.90;;;;;;4985569;28;20208;-76
2023/05/18 06:14:28;;;;;;;7.30;4.47;;;9.50;99.90;;;;;;4959026;28;20225;-76
2023/05/18 06:16:57;;;;;;;6.10;5.00;;;9.70;99.90;;;;;;4980235;28;20204;-76
2023/05/18 06:19:25;;;;;;;9.90;5.30;;;10.00;99.90;;;;;;4961404;28;20209;-76
2023/05/18 06:21:53;;;;;;;7.57;4.93;;;10.10;99.90;;;;;;4980652;28;20189;-75
2023/05/18 06:24:21;;;;;;;7.80;5.17;;;10.00;99.90;;;;;;4983922;28;20228;-77
2023/05/18 06:27:10;;;;;;;7.57;5.13;;;10.30;99.90;;;;;;4968988;28;20201;-76
2023/05/18 06:30:09;;;;;;;9.00;4.80;;;10.20;99.90;;;;;;4962744;28;20205;-76
2023/05/18 06:33:00;;;;;;;7.83;4.97;;;10.40;99.90;;;;;;4981871;28;20229;-76
2023/05/18 06:35:27;;;;;;;7.30;4.40;;;10.30;99.90;;;;;;4965616;28;20216;-76
2023/05/18 06:37:55;;;;;;;10.60;5.13;;;10.30;99.90;;;;;;4985279;28;20197;-76
2023/05/18 06:40:51;;;;;;;7.40;4.37;;;10.50;99.90;;;;;;4976907;28;20224;-77
2023/05/18 06:43:20;;;;;;;10.70;4.57;;;10.40;99.90;;;;;;4970123;28;20220;-76
2023/05/18 06:46:03;;;;;;;9.10;4.50;;;10.50;99.90;;;;;;4980628;28;20202;-76
2023/05/18 06:48:37;;;;;;;10.47;4.40;;;10.60;99.90;;;;;;4964583;28;20691;-77
2023/05/18 06:51:05;;;;;;;7.70;4.20;;;10.50;99.90;;;;;;4967524;28;20208;-76
2023/05/18 06:53:32;;;;;;;9.17;4.47;;;10.60;99.90;;;;;;4969824;28;20224;-76
2023/05/18 06:56:06;;;;;;;9.40;4.27;;;10.40;99.90;;;;;;4963808;28;20197;-77
2023/05/18 06:58:35;;;;;;;7.97;4.53;;;10.40;99.90;;;;;;4962546;28;20216;-77
2023/05/18 07:01:05;;;;;;;6.53;3.70;;;10.50;99.90;;;;;;4968731;28;20201;-77
2023/05/18 07:03:33;;;;;;;9.33;4.23;;;10.60;99.90;;;;;;4987662;28;20869;-77
2023/05/18 07:06:00;;;;;;;6.80;3.93;;;10.80;99.90;;;;;;4971937;28;20197;-77
2023/05/18 07:08:28;;;;;;;9.17;4.30;;;10.70;99.90;;;;;;4988239;28;20216;-77
2023/05/18 07:10:56;;;;;;;6.23;3.60;;;10.70;99.90;;;;;;4962062;28;20201;-77
2023/05/18 07:13:25;;;;;;;7.83;4.30;;;10.80;99.90;;;;;;4969212;28;20275;-76
2023/05/18 07:15:54;;;;;;;6.70;4.67;;;10.90;99.90;;;;;;4953970;28;20229;-77
2023/05/18 07:18:21;;;;;;;9.00;4.30;;;11.00;99.90;;;;;;4970871;28;20200;-77
2023/05/18 07:20:49;;;;;;;6.15;3.55;;;11.20;99.90;;;;;;4973666;28;20209;-77
2023/05/18 07:23:16;;;;;;;9.10;3.85;;;11.40;99.90;;;;;;4975536;28;20675;-77
2023/05/18 07:25:43;;;;;;;8.52;4.20;;;11.20;99.90;;;;;;4974967;28;20271;-77
2023/05/18 07:28:11;;;;;;;8.65;3.92;;;11.20;99.90;;;;;;4975249;28;20208;-77
2023/05/18 07:30:38;;;;;;;7.75;4.20;;;11.20;99.90;;;;;;4974854;28;20209;-77
2023/05/18 07:33:07;;;;;;;8.40;3.85;;;11.50;99.90;;;;;;4974023;28;20232;-76
2023/05/18 07:35:34;;;;;;;5.85;3.38;;;11.30;99.90;;;;;;4967389;28;20209;-77
2023/05/18 07:38:02;;;;;;;7.85;3.67;;;11.40;99.90;;;;;;4974764;28;20671;-76
2023/05/18 07:40:29;;;;;;;7.53;3.67;;;11.50;99.90;;;;;;4973357;28;20209;-77
2023/05/18 07:42:57;;;;;;;5.90;4.20;;;11.40;99.90;;;;;;4975005;28;20201;-77
2023/05/18 07:45:24;;;;;;;9.68;3.67;;;11.50;99.90;;;;;;4975865;28;20663;-76
2023/05/18 07:47:51;;;;;;;5.28;3.22;;;11.40;99.90;;;;;;4971010;28;20679;-77
2023/05/18 07:50:20;;;;;;;7.82;4.35;;;11.50;99.90;;;;;;4971602;28;20216;-76
2023/05/18 07:52:48;;;;;;;6.18;3.75;;;11.70;99.90;;;;;;4990754;28;20228;-75
2023/05/18 07:55:15;;;;;;;7.45;3.60;;;11.70;99.90;;;;;;4963788;28;20200;-77
2023/05/18 07:57:42;;;;;;;5.63;3.47;;;11.50;99.90;;;;;;4974528;28;20224;-77
2023/05/18 08:00:11;;;;;;;7.32;3.70;;;11.70;99.90;;;;;;4987977;28;20201;-77
2023/05/18 08:02:43;;;;;;;9.35;4.00;;;11.90;99.90;;;;;;4981806;28;20204;-77
2023/05/18 08:05:13;;;;;;;5.85;3.30;;;11.80;99.90;;;;;;4975054;28;20196;-77
2023/05/18 08:07:42;;;;;;;9.63;3.95;;;12.00;99.50;;;;;;4988770;28;20204;-76
2023/05/18 08:10:10;;;;;;;7.75;3.15;;;11.90;99.90;;;;;;4990439;28;20216;-77
2023/05/18 08:12:38;;;;;;;7.72;4.18;;;12.00;99.80;;;;;;4990906;28;20225;-76
2023/05/18 08:15:06;;;;;;;6.63;4.13;;;12.00;99.90;;;;;;4990624;28;20213;-77
2023/05/18 08:17:34;;;;;;;6.57;3.50;;;12.20;99.00;;;;;;4989260;28;20209;-76
2023/05/18 08:20:03;;;;;;;7.63;3.63;;;12.20;99.20;;;;;;4985851;28;20209;-76
2023/05/18 08:22:31;;;;;;;7.97;3.53;;;12.40;99.60;;;;;;4971798;28;20204;-76
2023/05/18 08:25:00;;;;;;;6.90;3.75;;;12.30;99.50;;;;;;4984904;28;20223;-76
2023/05/18 08:27:27;;;;;;;6.40;3.28;;;12.20;98.90;;;;;;4971511;28;20216;-76
2023/05/18 08:29:55;;;;;;;8.18;4.03;;;12.30;99.10;;;;;;4972010;28;20212;-76
2023/05/18 08:32:22;;;;;;;5.72;3.97;;;12.50;98.50;;;;;;4972507;28;20217;-75
2023/05/18 08:34:50;;;;;;;7.53;4.40;;;12.50;98.10;;;;;;4972369;28;20233;-75
2023/05/18 08:37:18;;;;;;;9.30;3.75;;;12.50;98.50;;;;;;4971792;28;20698;-75
2023/05/18 08:39:45;;;;;;;6.45;3.72;;;12.40;99.20;;;;;;4968896;28;20212;-75
2023/05/18 08:42:21;;;;;;;8.43;3.83;;;12.50;98.40;;;;;;4987636;28;20193;-75
2023/05/18 08:44:56;;;;;;;6.80;4.07;;;12.50;97.10;;;;;;4969383;28;20842;-75
2023/05/18 08:47:25;;;;;;;10.50;4.45;;;12.40;98.30;;;;;;4983367;28;20212;-75
2023/05/18 08:49:54;;;;;;;8.55;4.07;;;12.60;98.80;;;;;;4964971;28;20667;-75
2023/05/18 08:52:26;;;;;;;10.05;4.60;;;12.50;96.40;;;;;;4988979;28;20569;-76
2023/05/18 08:55:07;;;;;;;9.10;4.43;;;12.60;96.20;;;;;;4987819;28;20240;-76
2023/05/18 08:57:38;;;;;;;10.00;4.40;;;12.40;97.00;;;;;;4989037;28;20197;-76
2023/05/18 09:00:08;;;;;;;11.85;5.00;;;12.60;98.30;;;;;;4988158;28;20204;-76
2023/05/18 09:02:37;;;;;;;8.40;4.95;;;12.40;98.00;;;;;;4971958;28;20197;-76
2023/05/18 09:05:07;;;;;;;14.88;4.75;;;12.50;97.50;;;;;;4961231;28;20204;-75
2023/05/18 09:07:35;;;;;;;8.60;4.25;;;12.60;98.10;;;;;;4969631;28;20208;-75
2023/05/18 09:10:04;;;;;;;7.90;4.45;;;12.60;96.70;;;;;;4969564;28;20205;-75
2023/05/18 09:12:33;;;;;;;6.35;4.32;;;12.80;97.00;;;;;;4967218;28;20730;-75
2023/05/18 09:15:03;;;;;;;7.68;4.30;;;12.90;97.10;;;;;;4965573;28;20229;-75
2023/05/18 09:17:30;;;;;;;6.25;3.88;;;13.00;96.00;;;;;;4983077;28;20210;-75
2023/05/18 09:19:57;;;;;;;7.47;4.30;;;12.90;96.60;;;;;;4969796;28;20221;-75
2023/05/18 09:22:25;;;;;;;8.30;4.85;;;12.80;96.80;;;;;;4970914;28;20205;-75
2023/05/18 09:24:54;;;;;;;9.13;4.65;;;12.80;97.50;;;;;;4982859;28;20229;-75
2023/05/18 09:27:22;;;;;;;6.50;4.60;;;12.90;96.80;;;;;;4968174;28;20205;-75
2023/05/18 09:29:55;;;;;;;7.05;4.78;;;12.90;97.70;;;;;;4966755;28;20240;-75
2023/05/18 09:32:24;;;;;;;10.30;4.55;;;12.90;96.70;;;;;;4982939;28;20193;-75
2023/05/18 09:34:52;;;;;;;9.90;4.82;;;12.90;97.00;;;;;;4969274;28;20216;-75
2023/05/18 09:37:21;;;;;;;6.60;4.60;;;13.10;96.60;;;;;;4970772;28;20209;-75
2023/05/18 09:39:58;;;;;;;8.00;4.60;;;13.10;96.80;;;;;;4980307;28;20205;-75
2023/05/18 09:42:38;;;;;;;6.20;4.00;;;13.30;98.60;;;;;;4966343;28;20215;-76
2023/05/18 09:45:16;;;;;;;8.25;4.43;;;13.40;96.50;;;;;;4969072;28;20197;-75
2023/05/18 09:47:45;;;;;;;7.50;4.28;;;13.40;96.20;;;;;;4979259;28;20204;-75
2023/05/18 09:50:13;;;;;;;8.48;4.28;;;13.50;96.40;;;;;;4971854;28;20192;-76
2023/05/18 09:52:42;;;;;;;7.65;4.07;;;13.50;96.70;;;;;;4969269;28;20193;-75
2023/05/18 09:55:10;;;;;;;7.05;3.78;;;13.30;95.60;;;;;;4986678;28;20197;-75
2023/05/18 09:57:42;;;;;;;8.95;4.32;;;13.20;95.60;;;;;;4987256;28;20213;-75
2023/05/18 10:00:14;;;;;;;7.25;4.70;;;13.30;96.90;;;;;;4967770;28;20212;-75
2023/05/18 10:02:50;;;;;;;8.07;4.10;;;13.40;96.50;;;;;;4961105;28;20201;-75
2023/05/18 10:05:22;;;;;;;9.45;4.00;;;13.50;96.40;;;;;;4967888;28;20667;-74
2023/05/18 10:07:51;;;;;;;6.85;4.45;;;13.60;96.00;;;;;;4986915;28;20212;-75
2023/05/18 10:10:20;;;;;;;7.97;4.70;;;13.60;94.80;;;;;;4983706;28;20427;-75
2023/05/18 10:12:48;;;;;;;8.07;4.80;;;13.70;94.10;;;;;;4970087;28;20212;-75
2023/05/18 10:15:17;;;;;;;6.38;4.35;;;13.60;93.90;;;;;;4968527;28;20212;-75
2023/05/18 10:17:47;;;;;;;7.70;4.57;;;13.80;95.70;;;;;;4980575;28;20216;-75
2023/05/18 10:20:17;;;;;;;6.35;3.90;;;13.70;94.60;;;;;;4964150;28;20204;-75
2023/05/18 10:22:46;;;;;;;7.32;4.50;;;14.00;94.20;;;;;;4965084;28;20197;-75
2023/05/18 10:25:18;;;;;;;8.07;4.90;;;14.00;94.10;;;;;;4983431;28;20212;-75
2023/05/18 10:27:49;;;;;;;6.50;4.50;;;14.20;94.10;;;;;;4970113;28;20193;-75
2023/05/18 10:30:17;;;;;;;7.15;4.65;;;14.30;94.00;;;;;;4977505;28;20663;-75
2023/05/18 10:33:00;;;;;;;9.18;4.47;;;14.50;93.70;;;;;;4983910;28;20548;-75
2023/05/18 10:35:28;;;;;;;6.78;4.60;;;14.30;94.00;;;;;;4967325;28;20209;-75
2023/05/18 10:37:59;;;;;;;7.50;4.55;;;14.40;94.50;;;;;;4966077;28;20197;-75
2023/05/18 10:40:28;;;;;;;7.68;4.60;;;14.40;94.40;;;;;;4973728;28;20201;-75
2023/05/18 10:42:58;;;;;;;8.30;4.53;;;14.30;93.40;;;;;;4975867;28;20224;-75
2023/05/18 10:45:27;;;;;;;6.05;4.75;;;14.50;94.70;;;;;;4962463;28;20205;-75
2023/05/18 10:47:57;;;;;;;8.38;4.70;;;14.90;94.20;;;;;;4966339;28;20201;-76
2023/05/18 10:50:26;;;;;;;6.15;4.40;;;15.00;93.40;;;;;;4982681;28;20232;-76
2023/05/18 10:52:57;;;;;;;7.20;4.78;;;15.20;93.30;;;;;;4982949;28;20556;-76
2023/05/18 10:55:26;;;;;;;7.05;5.03;;;15.00;91.90;;;;;;4971061;28;20209;-75
2023/05/18 10:57:59;;;;;;;7.63;4.93;;;15.00;91.40;;;;;;4981061;28;20197;-76
2023/05/18 11:00:27;;;;;;;5.75;4.60;;;15.00;91.60;;;;;;4983150;28;20216;-76
2023/05/18 11:02:55;;;;;;;4.32;3.20;;;15.10;92.00;;;;;;4968861;28;20209;-76
2023/05/18 11:05:34;;;;;;;9.95;5.00;;;15.60;96.00;;;;;;4970667;28;20682;-78
2023/05/18 11:08:04;;;;;;;8.15;5.18;;;15.70;91.60;;;;;;4970216;28;20202;-78
2023/05/18 11:11:02;;;;;;;6.85;4.88;;;15.10;92.10;;;;;;4983678;28;20206;-77
2023/05/18 11:13:31;;;;;;;9.02;5.18;;;14.70;91.80;;;;;;4963800;28;20229;-77
2023/05/18 11:16:08;;;;;;;7.30;5.60;;;14.80;92.30;;;;;;4972415;28;20204;-77
2023/05/18 11:18:41;;;;;;;7.45;4.68;;;15.20;91.70;;;;;;4971883;28;20201;-77
2023/05/18 11:21:21;;;;;;;6.32;4.25;;;15.20;91.30;;;;;;4971121;28;20205;-77
2023/05/18 11:24:14;;;;;;;9.68;4.65;;;15.00;91.20;;;;;;4973771;28;20719;-77
2023/05/18 11:26:42;;;;;;;7.95;4.68;;;15.30;91.30;;;;;;4973671;28;20201;-77
2023/05/18 11:29:21;;;;;;;7.97;5.47;;;15.00;91.30;;;;;;4973685;28;20224;-77
2023/05/18 11:31:54;;;;;;;7.20;4.45;;;15.30;91.50;;;;;;4990884;28;20219;-77
2023/05/18 11:34:44;;;;;;;6.03;4.47;;;15.70;91.50;;;;;;4988326;28;20235;-77
2023/05/18 11:37:14;;;;;;;8.98;4.25;;;15.60;91.40;;;;;;4971478;28;20205;-77
2023/05/18 11:40:13;;;;;;;7.45;4.85;;;15.50;91.20;;;;;;4970550;28;20206;-77
2023/05/18 11:42:58;;;;;;;8.77;4.50;;;15.70;90.60;;;;;;4980760;28;20208;-77
2023/05/18 11:45:25;;;;;;;7.82;5.40;;;15.70;91.00;;;;;;4987989;28;20222;-77
2023/05/18 11:48:01;;;;;;;6.95;4.40;;;16.10;87.80;;;;;;4968105;28;20202;-77
2023/05/18 11:50:30;;;;;;;7.38;4.68;;;16.30;87.30;;;;;;4973873;28;20211;-78
2023/05/18 11:53:20;;;;;;;7.00;5.35;;;16.40;88.90;;;;;;4974448;28;20197;-77
2023/05/18 11:56:41;;;;;;;7.45;4.43;;;16.50;87.10;;;;;;4954038;29;20202;-77
2023/05/18 11:59:31;;;;;;;8.68;4.95;;;16.60;87.10;;;;;;4858755;29;20687;-77
2023/05/18 12:02:55;;;;;;;;;;;;;;;;;;;;;
2023/05/18 12:05:48;;;;;;;;;;;;;;;;;;;;;
2023/05/18 12:08:42;;;;;;;8.25;3.95;;;16.70;83.90;;;;;;4961601;28;20201;-76
2023/05/18 12:11:12;;;;;;;10.68;4.13;;;16.80;85.30;;;;;;4969860;28;20196;-79
2023/05/18 12:13:41;;;;;;;6.13;3.85;;;16.80;87.20;;;;;;4971297;28;20220;-79
2023/05/18 12:16:11;;;;;;;5.88;3.38;;;16.90;87.70;;;;;;4979770;28;20676;-78
2023/05/18 12:18:39;;;;;;;8.90;3.80;;;16.80;87.30;;;;;;4965837;28;20698;-78
2023/05/18 12:21:07;;;;;;;7.65;4.03;;;17.00;86.20;;;;;;4979726;28;20204;-78
2023/05/18 12:23:37;;;;;;;6.13;3.42;;;16.70;87.90;;;;;;4969160;28;20229;-78
2023/05/18 12:26:07;;;;;;;8.63;4.30;;;16.70;87.40;;;;;;4983980;28;20197;-78
2023/05/18 12:28:34;;;;;;;8.55;4.07;;;17.30;84.60;;;;;;4965607;28;20208;-78
2023/05/18 12:31:06;;;;;;;7.13;3.63;;;17.20;86.30;;;;;;4970673;28;20208;-79
2023/05/18 12:33:33;;;;;;;8.93;4.53;;;17.30;86.00;;;;;;4972013;28;20623;-78
2023/05/18 12:36:01;;;;;;;7.40;3.47;;;17.70;83.20;;;;;;4973458;28;20205;-78
2023/05/18 12:38:28;;;;;;;5.63;3.38;;;18.10;80.50;;;;;;4982983;28;20205;-78
2023/05/18 12:41:23;;;;;;;9.38;3.92;;;17.50;83.00;;;;;;4970548;28;20197;-78
2023/05/18 12:43:53;;;;;;;6.78;3.60;;;17.70;81.20;;;;;;4970667;28;20287;-79
2023/05/18 12:46:22;;;;;;;5.63;3.25;;;18.10;79.80;;;;;;4962150;28;20205;-78
2023/05/18 12:48:57;;;;;;;5.53;3.35;;;17.70;80.70;;;;;;4972255;28;20197;-78
2023/05/18 12:51:29;;;;;;;8.38;3.63;;;18.10;82.00;;;;;;4985951;28;20220;-78
2023/05/18 12:53:57;;;;;;;6.50;2.90;;;18.00;81.60;;;;;;4969740;28;20229;-79
2023/05/18 12:56:26;;;;;;;7.43;4.00;;;18.40;77.70;;;;;;4969178;28;20205;-78
2023/05/18 12:58:58;;;;;;;6.07;4.03;;;18.30;77.00;;;;;;4983139;28;20209;-78
2023/05/18 13:01:53;;;;;;;9.55;3.97;;;18.20;78.20;;;;;;4970634;28;20216;-78
2023/05/18 13:04:21;;;;;;;8.05;3.63;;;18.40;77.70;;;;;;4968595;28;20209;-78
2023/05/18 13:06:48;;;;;;;8.18;4.13;;;18.70;78.50;;;;;;4970619;28;20564;-78
2023/05/18 13:09:16;;;;;;;6.18;3.35;;;17.60;79.10;;;;;;4970577;28;20204;-77
2023/05/18 13:11:50;;;;;;;4.90;2.72;;;17.90;79.30;;;;;;4965146;28;20204;-78
2023/05/18 13:14:22;;;;;;;5.03;2.83;;;18.70;81.80;;;;;;4987300;28;20224;-78